createdAt,value
2024-03-03T00:11:36.913Z,6.03
2024-03-03T00:14:16.249Z,5.19
2024-03-03T00:16:47.615Z,5.23
2024-03-03T00:19:17.335Z,5.42
2024-03-03T00:22:02.923Z,5.64
2024-03-03T00:24:43.918Z,5.21
2024-03-03T00:27:21.318Z,5.11
2024-03-03T00:29:49.747Z,5.87
2024-03-03T00:32:21.073Z,4.89
2024-03-03T00:34:48.907Z,5.46
2024-03-03T00:37:19.799Z,5.01
2024-03-03T00:39:48.866Z,5.52
2024-03-03T00:42:19.023Z,4.85
2024-03-03T00:44:48.644Z,4.15
2024-03-03T00:47:18.053Z,5.11
2024-03-03T00:49:53.050Z,5.25
2024-03-03T00:52:21.106Z,4.20
2024-03-03T00:54:50.600Z,5.66
2024-03-03T00:57:21.070Z,4.81
2024-03-03T00:59:55.587Z,5.00
2024-03-03T01:02:27.560Z,4.95
2024-03-03T01:05:04.749Z,5.34
2024-03-03T01:07:39.583Z,4.58
2024-03-03T01:10:10.582Z,5.35
2024-03-03T01:12:41.657Z,6.58
2024-03-03T01:15:11.669Z,5.46
2024-03-03T01:17:43.769Z,5.66
2024-03-03T01:20:19.971Z,4.41
2024-03-03T01:23:07.867Z,4.49
2024-03-03T01:25:41.538Z,5.59
2024-03-03T01:28:17.019Z,5.13
2024-03-03T01:30:55.684Z,5.78
2024-03-03T01:33:33.028Z,4.26
2024-03-03T01:36:08.850Z,5.42
2024-03-03T01:38:39.666Z,5.38
2024-03-03T01:41:12.697Z,4.65
2024-03-03T01:43:51.551Z,5.01
2024-03-03T01:49:37.433Z,5.19
2024-03-03T01:52:21.810Z,5.04
2024-03-03T01:54:56.308Z,5.54
2024-03-03T01:57:25.456Z,4.41
2024-03-03T02:00:09.493Z,4.61
2024-03-03T02:02:52.212Z,5.90
2024-03-03T02:05:24.918Z,6.13
2024-03-03T02:08:04.878Z,5.17
2024-03-03T02:11:10.994Z,5.55
2024-03-03T02:14:03.639Z,4.25
2024-03-03T02:19:43.169Z,5.24
2024-03-03T02:22:25.658Z,5.57
2024-03-03T02:25:11.611Z,5.50
2024-03-03T02:27:51.188Z,4.31
2024-03-03T02:30:38.016Z,4.25
2024-03-03T02:33:17.163Z,4.90
2024-03-03T02:36:03.065Z,5.45
2024-03-03T02:39:28.027Z,5.60
2024-03-03T02:42:27.014Z,6.24
2024-03-03T02:45:03.844Z,5.03
2024-03-03T02:47:36.705Z,4.89
2024-03-03T02:50:14.674Z,5.08
2024-03-03T03:02:45.578Z,6.19
2024-03-03T03:05:54.876Z,5.60
2024-03-03T03:12:02.877Z,5.98
2024-03-03T03:17:43.135Z,4.64
2024-03-03T03:24:15.760Z,4.03
2024-03-03T03:26:58.116Z,3.78
2024-03-03T03:29:56.789Z,3.97
2024-03-03T03:32:41.168Z,4.66
2024-03-03T03:35:47.377Z,5.10
2024-03-03T03:42:02.556Z,3.98
2024-03-03T03:44:37.689Z,4.52
2024-03-03T03:54:38.960Z,3.95
2024-03-03T03:57:20.234Z,5.41
2024-03-03T03:59:56.977Z,3.88
2024-03-03T04:10:41.921Z,5.38
2024-03-03T04:14:01.576Z,5.41
2024-03-03T04:52:47.909Z,3.36
2024-03-03T04:59:56.838Z,2.75
2024-03-03T05:02:42.755Z,2.61
2024-03-03T05:24:45.917Z,3.62
2024-03-03T05:27:48.375Z,3.56
2024-03-03T05:35:00.785Z,4.65
2024-03-03T05:37:35.942Z,2.81
2024-03-03T05:41:41.587Z,3.46
2024-03-03T05:45:13.082Z,3.35
2024-03-03T05:48:18.843Z,4.77
2024-03-03T06:13:00.245Z,2.37
2024-03-03T06:35:05.553Z,2.98
2024-03-03T06:57:43.043Z,3.71
2024-03-03T07:19:44.903Z,3.97
2024-03-03T07:22:20.587Z,5.93
2024-03-03T07:24:58.313Z,5.01
2024-03-03T07:27:33.442Z,5.53
2024-03-03T07:30:18.055Z,3.98
2024-03-03T07:33:24.626Z,4.12
2024-03-03T07:36:07.542Z,6.26
2024-03-03T07:38:47.155Z,4.13
2024-03-03T07:41:29.380Z,4.58
2024-03-03T07:47:02.562Z,4.48
2024-03-03T07:49:45.982Z,5.69
2024-03-03T07:52:19.900Z,5.52
2024-03-03T07:54:51.633Z,4.90
2024-03-03T08:08:29.786Z,4.71
2024-03-03T08:15:26.725Z,4.94
2024-03-03T08:21:40.886Z,4.84
2024-03-03T08:24:20.272Z,5.71
2024-03-03T08:29:50.674Z,5.06
2024-03-03T08:32:26.430Z,5.46
2024-03-03T08:35:03.641Z,6.27
2024-03-03T08:37:56.212Z,6.36
2024-03-03T08:41:04.785Z,6.86
2024-03-03T08:43:43.003Z,5.66
2024-03-03T08:46:48.009Z,6.70
2024-03-03T08:56:36.578Z,7.05
2024-03-03T09:25:47.271Z,12.35
2024-03-03T09:28:14.196Z,12.18
2024-03-03T09:30:40.936Z,13.46
2024-03-03T09:33:09.837Z,14.44
2024-03-03T09:35:39.121Z,14.72
2024-03-03T09:38:06.373Z,15.68
2024-03-03T09:40:36.089Z,16.58
2024-03-03T09:43:09.159Z,17.33
2024-03-03T09:45:36.645Z,18.20
2024-03-03T09:48:04.172Z,18.84
2024-03-03T09:50:31.689Z,19.31
2024-03-03T09:53:01.904Z,19.90
2024-03-03T09:55:31.418Z,19.76
2024-03-03T09:57:58.511Z,20.30
2024-03-03T10:00:25.539Z,21.41
2024-03-03T10:02:54.596Z,21.63
2024-03-03T10:05:22.902Z,21.56
2024-03-03T10:07:54.103Z,21.87
2024-03-03T10:10:28.029Z,21.97
2024-03-03T10:12:56.297Z,23.09
2024-03-03T10:15:24.308Z,22.54
2024-03-03T10:17:51.855Z,23.00
2024-03-03T10:20:18.735Z,22.91
2024-03-03T10:22:45.516Z,23.48
2024-03-03T10:25:17.305Z,23.76
2024-03-03T10:27:48.741Z,23.99
2024-03-03T10:30:21.609Z,24.55
2024-03-03T10:32:49.381Z,24.83
2024-03-03T10:35:17.729Z,24.88
2024-03-03T10:37:48.963Z,24.87
2024-03-03T10:40:16.512Z,24.98
2024-03-03T10:42:43.414Z,24.90
2024-03-03T10:45:10.929Z,24.85
2024-03-03T10:47:38.767Z,24.97
2024-03-03T10:50:09.998Z,25.17
2024-03-03T10:52:40.931Z,25.31
2024-03-03T10:55:10.889Z,24.91
2024-03-03T10:57:37.657Z,24.90
2024-03-03T11:00:07.787Z,25.07
2024-03-03T11:02:35.507Z,24.30
2024-03-03T11:05:02.609Z,24.36
2024-03-03T11:07:30.903Z,24.05
2024-03-03T11:09:58.898Z,24.69
2024-03-03T11:12:31.834Z,24.53
2024-03-03T11:15:02.268Z,24.63
2024-03-03T11:17:33.426Z,24.55
2024-03-03T11:20:04.510Z,24.33
2024-03-03T11:22:37.186Z,23.89
2024-03-03T11:25:06.466Z,24.37
2024-03-03T11:27:38.479Z,24.58
2024-03-03T11:30:06.938Z,24.41
2024-03-03T11:32:36.389Z,24.16
2024-03-03T11:35:04.938Z,24.05
2024-03-03T11:37:33.296Z,24.31
2024-03-03T11:40:01.334Z,24.15
2024-03-03T11:42:34.172Z,24.33
2024-03-03T11:45:01.885Z,24.08
2024-03-03T11:47:40.548Z,23.43
2024-03-03T11:50:18.830Z,23.67
2024-03-03T11:52:49.880Z,23.14
2024-03-03T11:55:25.227Z,23.45
2024-03-03T11:57:55.068Z,23.34
2024-03-03T12:00:25.810Z,22.84
2024-03-03T12:02:54.013Z,21.94
2024-03-03T12:05:21.159Z,22.17
2024-03-03T12:07:50.083Z,21.76
2024-03-03T12:10:22.172Z,21.58
2024-03-03T12:12:50.982Z,20.76
2024-03-03T12:15:19.599Z,20.54
2024-03-03T12:17:49.619Z,19.68
2024-03-03T12:20:18.451Z,19.54
2024-03-03T12:22:46.883Z,19.04
2024-03-03T12:25:15.731Z,18.91
2024-03-03T12:28:09.171Z,18.71
2024-03-03T12:30:37.275Z,17.06
2024-03-03T12:33:07.632Z,16.90
2024-03-03T12:35:35.715Z,17.31
2024-03-03T12:38:03.459Z,16.40
2024-03-03T12:40:30.368Z,16.21
2024-03-03T12:42:57.407Z,16.37
2024-03-03T12:45:25.602Z,16.10
2024-03-03T12:47:52.504Z,15.26
2024-03-03T12:50:20.483Z,15.10
2024-03-03T12:52:48.920Z,15.29
2024-03-03T12:55:17.157Z,14.32
2024-03-03T12:57:45.091Z,14.69
2024-03-03T13:00:16.156Z,14.17
2024-03-03T13:02:44.433Z,14.17
2024-03-03T13:05:13.682Z,14.27
2024-03-03T13:07:50.771Z,14.53
2024-03-03T13:10:19.304Z,14.00
2024-03-03T13:12:47.411Z,13.18
2024-03-03T13:15:14.367Z,13.55
2024-03-03T13:17:41.121Z,13.38
2024-03-03T13:20:13.589Z,13.57
2024-03-03T13:22:40.643Z,13.19
2024-03-03T13:25:10.213Z,13.40
2024-03-03T13:27:36.868Z,13.47
2024-03-03T13:30:08.237Z,12.94
2024-03-03T13:32:35.276Z,12.82
2024-03-03T13:35:02.099Z,12.58
2024-03-03T13:37:29.548Z,12.41
2024-03-03T13:39:56.408Z,12.20
2024-03-03T13:42:23.214Z,11.77
2024-03-03T13:44:50.135Z,12.06
2024-03-03T13:47:18.173Z,11.06
2024-03-03T13:49:44.960Z,11.93
2024-03-03T13:52:14.251Z,11.71
2024-03-03T13:54:41.833Z,11.37
2024-03-03T13:57:08.826Z,11.12
2024-03-03T13:59:36.483Z,10.50
2024-03-03T14:02:03.861Z,10.81
2024-03-03T14:04:30.791Z,10.36
2024-03-03T14:06:59.860Z,10.82
2024-03-03T14:09:26.719Z,9.78
2024-03-03T14:11:53.435Z,10.54
2024-03-03T14:14:20.113Z,10.15
2024-03-03T14:16:47.016Z,10.67
2024-03-03T14:19:13.768Z,10.36
2024-03-03T14:21:40.518Z,10.61
2024-03-03T14:24:07.708Z,10.56
2024-03-03T14:26:36.890Z,9.72
2024-03-03T14:29:05.473Z,9.71
2024-03-03T14:31:32.275Z,10.36
2024-03-03T14:33:59.013Z,10.20
2024-03-03T14:36:25.905Z,10.13
2024-03-03T14:38:52.709Z,9.99
2024-03-03T14:41:19.421Z,9.26
2024-03-03T14:43:46.830Z,9.32
2024-03-03T14:46:14.268Z,10.15
2024-03-03T14:48:41.083Z,9.76
2024-03-03T14:51:07.910Z,9.45
2024-03-03T14:53:36.320Z,9.75
2024-03-03T14:56:05.354Z,9.46
2024-03-03T14:58:32.515Z,9.65
2024-03-03T15:00:59.395Z,9.77
2024-03-03T15:15:47.147Z,8.70
2024-03-03T15:39:21.056Z,9.09
2024-03-03T15:41:47.798Z,8.79
2024-03-03T15:44:14.509Z,8.78
2024-03-03T15:46:41.227Z,8.33
2024-03-03T15:49:08.069Z,8.71
2024-03-03T15:51:38.952Z,8.72
2024-03-03T15:54:07.689Z,8.35
2024-03-03T15:56:34.691Z,8.47
2024-03-03T15:59:01.879Z,8.27
2024-03-03T16:01:30.304Z,8.14
2024-03-03T16:03:57.150Z,7.40
2024-03-03T16:06:23.943Z,7.06
2024-03-03T16:08:52.585Z,7.38
2024-03-03T16:11:19.826Z,7.53
2024-03-03T16:13:46.588Z,7.67
2024-03-03T16:16:13.942Z,8.11
2024-03-03T16:18:40.656Z,7.81
2024-03-03T16:21:08.231Z,7.60
2024-03-03T16:23:35.023Z,7.85
2024-03-03T16:26:01.949Z,6.99
2024-03-03T16:28:30.509Z,7.71
2024-03-03T16:30:57.370Z,7.47
2024-03-03T16:33:24.499Z,7.62
2024-03-03T16:35:51.308Z,7.61
2024-03-03T16:38:18.063Z,7.25
2024-03-03T16:40:45.866Z,7.34
2024-03-03T16:43:12.732Z,7.46
2024-03-03T16:45:39.834Z,7.53
2024-03-03T16:48:07.295Z,7.28
2024-03-03T16:50:35.693Z,7.28
2024-03-03T16:53:02.460Z,7.00
2024-03-03T16:55:29.740Z,7.12
2024-03-03T16:58:00.385Z,7.27
2024-03-03T17:00:27.691Z,7.31
2024-03-03T17:02:54.636Z,7.24
2024-03-03T17:05:22.094Z,6.97
2024-03-03T17:07:50.053Z,7.18
2024-03-03T17:10:17.114Z,7.13
2024-03-03T17:12:43.907Z,6.84
2024-03-03T17:15:12.379Z,6.76
2024-03-03T17:17:40.630Z,6.84
2024-03-03T17:20:11.072Z,6.94
2024-03-03T17:22:38.376Z,6.84
2024-03-03T17:25:06.374Z,6.96
2024-03-03T17:27:33.150Z,6.63
2024-03-03T17:29:59.871Z,6.30
2024-03-03T17:32:26.964Z,6.69
2024-03-03T17:34:53.743Z,6.68
2024-03-03T17:37:20.524Z,6.44
2024-03-03T17:39:47.656Z,6.47
2024-03-03T17:42:14.438Z,6.45
2024-03-03T17:44:41.267Z,6.45
2024-03-03T17:47:07.984Z,6.40
2024-03-03T17:49:35.219Z,6.43
2024-03-03T17:52:02.114Z,6.07
2024-03-03T17:54:29.012Z,6.24
2024-03-03T17:56:56.119Z,6.57
2024-03-03T17:59:23.254Z,6.53
2024-03-03T18:01:50.256Z,6.25
2024-03-03T18:04:17.260Z,6.35
2024-03-03T18:06:44.598Z,6.45
2024-03-03T18:09:12.764Z,5.79
2024-03-03T18:11:39.642Z,6.21
2024-03-03T18:14:06.410Z,6.05
2024-03-03T18:16:33.900Z,5.99
2024-03-03T18:19:00.741Z,5.87
2024-03-03T18:21:27.596Z,6.09
2024-03-03T18:23:54.786Z,6.22
2024-03-03T18:26:21.614Z,6.22
2024-03-03T18:28:49.847Z,5.61
2024-03-03T18:31:17.365Z,5.19
2024-03-03T18:33:44.385Z,4.97
2024-03-03T18:36:15.082Z,5.72
2024-03-03T18:38:42.017Z,6.13
2024-03-03T18:41:09.662Z,5.68
2024-03-03T18:43:36.861Z,5.92
2024-03-03T18:46:06.024Z,5.85
2024-03-03T18:48:32.830Z,6.13
2024-03-03T18:50:59.987Z,5.70
2024-03-03T18:53:26.887Z,5.06
2024-03-03T18:55:53.655Z,5.20
2024-03-03T18:58:20.547Z,5.98
2024-03-03T19:00:49.171Z,5.85
2024-03-03T19:03:16.140Z,5.45
2024-03-03T19:05:42.956Z,5.34
2024-03-03T19:08:09.721Z,5.56
2024-03-03T19:10:36.844Z,5.75
2024-03-03T19:13:04.813Z,5.66
2024-03-03T19:15:31.613Z,5.69
2024-03-03T19:17:58.658Z,5.24
2024-03-03T19:20:28.589Z,5.38
2024-03-03T19:22:59.753Z,4.69
2024-03-03T19:25:29.186Z,5.48
2024-03-03T19:27:56.346Z,5.70
2024-03-03T19:30:23.157Z,5.44
2024-03-03T19:32:49.928Z,5.37
2024-03-03T19:35:20.913Z,5.50
2024-03-03T19:37:47.653Z,5.49
2024-03-03T19:40:14.679Z,5.57
2024-03-03T19:42:41.602Z,5.27
2024-03-03T19:45:12.222Z,5.16
2024-03-03T19:47:39.199Z,4.82
2024-03-03T19:50:07.818Z,5.39
2024-03-03T19:52:34.929Z,5.42
2024-03-03T19:55:01.878Z,5.45
2024-03-03T19:57:31.221Z,5.33
2024-03-03T19:59:58.292Z,5.29
2024-03-03T20:02:28.209Z,5.35
2024-03-03T20:04:55.012Z,5.39
2024-03-03T20:07:21.802Z,5.26
2024-03-03T20:09:48.604Z,5.26
2024-03-03T20:12:15.423Z,5.24
2024-03-03T20:18:28.899Z,5.06
2024-03-03T20:20:55.657Z,5.23
2024-03-03T20:23:22.764Z,5.37
2024-03-03T20:25:49.615Z,5.25
2024-03-03T20:28:16.756Z,4.34
2024-03-03T20:30:57.001Z,4.78
2024-03-03T20:33:23.868Z,4.48
2024-03-03T20:36:43.200Z,4.79
2024-03-03T20:39:28.222Z,5.15
2024-03-03T20:41:57.212Z,5.02
2024-03-03T20:44:24.015Z,4.97
2024-03-03T20:46:52.049Z,4.99
2024-03-03T20:49:21.427Z,5.11
2024-03-03T20:51:48.409Z,5.05
2024-03-03T20:54:16.539Z,4.92
2024-03-03T20:56:44.495Z,4.41
2024-03-03T20:59:11.472Z,4.63
2024-03-03T21:01:38.387Z,5.25
2024-03-03T21:04:05.521Z,5.01
2024-03-03T21:06:32.366Z,4.89
2024-03-03T21:08:59.700Z,4.20
2024-03-03T21:11:27.054Z,4.28
2024-03-03T21:13:58.751Z,5.05
2024-03-03T21:16:26.155Z,5.27
2024-03-03T21:18:52.929Z,4.45
2024-03-03T21:21:19.852Z,5.29
2024-03-03T21:23:46.592Z,4.22
2024-03-03T21:26:13.505Z,4.44
2024-03-03T21:28:40.456Z,3.78
2024-03-03T21:31:07.258Z,5.26
2024-03-03T21:33:35.662Z,4.20
2024-03-03T21:36:02.502Z,4.38
2024-03-03T21:38:29.491Z,4.49
2024-03-03T21:40:59.309Z,4.39
2024-03-03T21:43:27.932Z,4.31
2024-03-03T21:45:54.680Z,4.92
2024-03-03T21:48:21.644Z,5.25
2024-03-03T21:50:48.509Z,4.28
2024-03-03T21:53:15.226Z,4.94
2024-03-03T21:55:43.482Z,5.09
2024-03-03T21:58:11.580Z,5.04
2024-03-03T22:00:38.634Z,4.28
2024-03-03T22:03:05.522Z,5.07
2024-03-03T22:05:32.357Z,4.45
2024-03-03T22:07:59.151Z,4.84
2024-03-03T22:10:26.403Z,4.81
2024-03-03T22:12:53.219Z,5.06
2024-03-03T22:15:22.246Z,5.20
2024-03-03T22:17:49.064Z,4.12
2024-03-03T22:20:15.905Z,4.89
2024-03-03T22:22:42.686Z,4.89
2024-03-03T22:25:09.612Z,5.19
2024-03-03T22:27:37.318Z,5.20
2024-03-03T22:30:05.047Z,4.37
2024-03-03T22:32:36.320Z,5.16
2024-03-03T22:35:04.566Z,4.63
2024-03-03T22:37:37.817Z,5.16
2024-03-03T22:40:12.091Z,5.08
2024-03-03T22:42:40.428Z,4.68
2024-03-03T22:45:07.841Z,4.38
2024-03-03T22:47:45.086Z,5.18
2024-03-03T22:50:12.784Z,3.72
2024-03-03T22:52:39.662Z,3.67
2024-03-03T22:55:07.146Z,4.15
2024-03-03T22:57:34.275Z,4.83
2024-03-03T23:00:01.041Z,3.75
2024-03-03T23:02:27.842Z,4.10
2024-03-03T23:04:55.810Z,4.98
2024-03-03T23:07:22.815Z,3.97
2024-03-03T23:09:49.553Z,3.79
2024-03-03T23:12:16.306Z,4.20
2024-03-03T23:14:43.098Z,4.33
2024-03-03T23:17:09.871Z,3.74
2024-03-03T23:19:36.774Z,4.53
2024-03-03T23:22:04.020Z,3.78
2024-03-03T23:24:30.763Z,4.59
2024-03-03T23:26:57.657Z,3.67
2024-03-03T23:29:24.362Z,3.68
2024-03-03T23:31:51.086Z,3.83
2024-03-03T23:34:17.880Z,4.54
2024-03-03T23:36:46.365Z,4.70
2024-03-03T23:39:13.313Z,4.44
2024-03-03T23:41:40.946Z,4.62
2024-03-03T23:44:07.667Z,3.45
2024-03-03T23:46:34.528Z,4.14
2024-03-03T23:49:01.407Z,3.49
2024-03-03T23:51:28.240Z,4.36
2024-03-03T23:53:55.029Z,3.39
2024-03-03T23:56:22.100Z,3.61
2024-03-03T23:58:50.261Z,3.76
